createdAt,value
2019-05-01T00:00:15.965Z,10.14
2019-05-01T00:01:06.614Z,9.89
2019-05-01T00:02:06.654Z,9.82
2019-05-01T00:03:06.604Z,9.96
2019-05-01T00:04:06.603Z,9.83
2019-05-01T00:05:06.607Z,9.88
2019-05-01T00:06:06.616Z,9.83
2019-05-01T00:07:06.584Z,9.63
2019-05-01T00:08:06.572Z,9.76
2019-05-01T00:09:06.574Z,9.96
2019-05-01T00:10:06.643Z,9.68
2019-05-01T00:11:06.559Z,9.81
2019-05-01T00:12:06.557Z,9.75
2019-05-01T00:13:06.575Z,9.79
2019-05-01T00:14:06.567Z,9.89
2019-05-01T00:15:06.554Z,9.78
2019-05-01T00:16:06.564Z,9.63
2019-05-01T00:17:06.579Z,9.71
2019-05-01T00:18:06.563Z,9.63
2019-05-01T00:19:06.515Z,9.64
2019-05-01T00:20:06.511Z,9.75
2019-05-01T00:21:06.548Z,9.75
2019-05-01T00:22:06.550Z,9.79
2019-05-01T00:23:06.519Z,9.81
2019-05-01T00:24:06.518Z,9.85
2019-05-01T00:25:06.479Z,9.78
2019-05-01T00:26:06.469Z,9.79
2019-05-01T00:27:06.484Z,9.73
2019-05-01T00:28:06.480Z,9.81
2019-05-01T00:29:06.457Z,9.82
2019-05-01T00:30:06.458Z,9.93
2019-05-01T00:31:06.470Z,9.88
2019-05-01T00:32:06.438Z,9.94
2019-05-01T00:33:06.445Z,9.71
2019-05-01T00:34:06.427Z,9.79
2019-05-01T00:35:06.427Z,9.57
2019-05-01T00:36:06.464Z,9.64
2019-05-01T00:37:06.423Z,9.58
2019-05-01T00:38:06.397Z,9.38
2019-05-01T00:39:06.426Z,9.39
2019-05-01T00:40:06.401Z,9.09
2019-05-01T00:41:06.392Z,8.88
2019-05-01T00:42:06.377Z,8.73
2019-05-01T00:43:06.370Z,8.96
2019-05-01T00:44:06.370Z,9.06
2019-05-01T00:45:06.409Z,9.23
2019-05-01T00:46:06.345Z,9.34
2019-05-01T00:47:06.345Z,9.48
2019-05-01T00:48:06.363Z,9.66
2019-05-01T00:49:06.357Z,9.73
2019-05-01T00:50:06.368Z,9.75
2019-05-01T00:51:06.352Z,9.68
2019-05-01T00:52:06.463Z,9.68
2019-05-01T00:53:06.361Z,9.76
2019-05-01T00:54:06.341Z,9.79
2019-05-01T00:55:06.331Z,9.63
2019-05-01T00:56:06.313Z,9.64
2019-05-01T00:57:06.318Z,9.60
2019-05-01T00:58:06.285Z,9.50
2019-05-01T00:59:06.274Z,9.12
2019-05-01T01:00:15.109Z,9.21
2019-05-01T01:02:10.893Z,9.30
2019-05-01T01:03:10.788Z,9.20
2019-05-01T01:04:10.794Z,9.23
2019-05-01T01:05:10.758Z,9.24
2019-05-01T01:06:10.953Z,9.18
2019-05-01T01:07:10.762Z,9.12
2019-05-01T01:08:10.714Z,9.04
2019-05-01T01:09:10.706Z,9.12
2019-05-01T01:10:10.701Z,9.12
2019-05-01T01:11:10.697Z,9.06
2019-05-01T01:12:10.691Z,8.94
2019-05-01T01:13:10.683Z,8.63
2019-05-01T01:14:10.680Z,8.66
2019-05-01T01:15:10.685Z,8.54
2019-05-01T01:16:10.730Z,8.58
2019-05-01T01:17:10.702Z,8.66
2019-05-01T01:18:10.701Z,8.65
2019-05-01T01:19:10.734Z,8.68
2019-05-01T01:20:10.718Z,8.78
2019-05-01T01:21:10.662Z,8.78
2019-05-01T01:22:10.662Z,8.87
2019-05-01T01:23:10.660Z,8.88
2019-05-01T01:24:10.666Z,9.02
2019-05-01T01:25:10.679Z,8.99
2019-05-01T01:26:10.661Z,8.72
2019-05-01T01:27:10.644Z,8.69
2019-05-01T01:28:10.604Z,8.51
2019-05-01T01:29:10.620Z,8.54
2019-05-01T01:30:10.620Z,8.63
2019-05-01T01:31:10.591Z,8.71
2019-05-01T01:32:10.619Z,8.88
2019-05-01T01:33:10.548Z,8.86
2019-05-01T01:34:10.602Z,8.97
2019-05-01T01:35:10.604Z,8.90
2019-05-01T01:36:10.533Z,8.69
2019-05-01T01:37:10.536Z,8.62
2019-05-01T01:38:10.573Z,8.60
2019-05-01T01:39:10.560Z,8.60
2019-05-01T01:40:10.508Z,8.63
2019-05-01T01:41:10.600Z,8.81
2019-05-01T01:42:10.494Z,8.86
2019-05-01T01:43:10.522Z,8.90
2019-05-01T01:44:10.499Z,8.90
2019-05-01T01:45:10.512Z,8.91
2019-05-01T01:46:10.543Z,8.91
2019-05-01T01:47:10.506Z,8.94
2019-05-01T01:48:10.455Z,9.02
2019-05-01T01:49:10.503Z,9.05
2019-05-01T01:50:10.444Z,9.05
2019-05-01T01:51:10.484Z,8.72
2019-05-01T01:52:10.454Z,8.62
2019-05-01T01:53:10.467Z,8.29
2019-05-01T01:54:10.430Z,8.32
2019-05-01T01:55:10.423Z,8.30
2019-05-01T01:56:10.415Z,8.20
2019-05-01T01:57:10.416Z,8.44
2019-05-01T01:58:10.383Z,8.47
2019-05-01T01:59:10.454Z,8.45
2019-05-01T02:00:10.454Z,8.42
2019-05-01T02:01:10.401Z,8.51
2019-05-01T02:02:10.389Z,8.32
2019-05-01T02:03:10.354Z,8.20
2019-05-01T02:04:10.362Z,8.20
2019-05-01T02:05:10.338Z,8.07
2019-05-01T02:06:10.339Z,8.04
2019-05-01T02:07:10.321Z,7.94
2019-05-01T02:08:10.357Z,7.94
2019-05-01T02:09:10.322Z,8.00
2019-05-01T02:10:10.325Z,7.82
2019-05-01T02:11:10.300Z,7.81
2019-05-01T02:12:10.309Z,8.00
2019-05-01T02:13:10.296Z,8.15
2019-05-01T02:14:10.282Z,8.21
2019-05-01T02:15:10.287Z,8.04
2019-05-01T02:16:10.295Z,8.10
2019-05-01T02:17:10.305Z,7.97
2019-05-01T02:18:10.251Z,8.00
2019-05-01T02:19:10.280Z,7.90
2019-05-01T02:20:10.238Z,8.02
2019-05-01T02:21:10.231Z,7.90
2019-05-01T02:22:10.250Z,7.93
2019-05-01T02:23:10.227Z,7.87
2019-05-01T02:24:10.223Z,7.93
2019-05-01T02:25:10.197Z,8.00
2019-05-01T02:26:10.200Z,8.10
2019-05-01T02:27:10.207Z,8.03
2019-05-01T02:28:10.176Z,8.04
2019-05-01T02:29:10.182Z,8.07
2019-05-01T02:30:10.177Z,7.99
2019-05-01T02:31:26.706Z,7.87
2019-05-01T02:32:10.224Z,7.87
2019-05-01T02:33:10.194Z,7.79
2019-05-01T02:34:10.142Z,7.79
2019-05-01T02:35:10.152Z,7.79
2019-05-01T02:36:10.138Z,7.74
2019-05-01T02:37:10.142Z,7.75
2019-05-01T02:38:10.127Z,7.69
2019-05-01T02:39:10.155Z,7.90
2019-05-01T02:40:10.092Z,8.07
2019-05-01T02:41:10.124Z,8.07
2019-05-01T02:42:10.085Z,8.03
2019-05-01T02:43:10.092Z,7.85
2019-05-01T02:44:10.121Z,8.03
2019-05-01T02:45:10.066Z,8.07
2019-05-01T02:46:10.048Z,8.04
2019-05-01T02:47:10.039Z,8.03
2019-05-01T02:48:10.033Z,8.04
2019-05-01T02:49:10.077Z,8.12
2019-05-01T02:50:10.054Z,8.14
2019-05-01T02:51:10.026Z,8.10
2019-05-01T02:52:10.030Z,8.00
2019-05-01T02:53:10.022Z,8.08
2019-05-01T02:54:10.021Z,8.03
2019-05-01T02:55:09.994Z,7.99
2019-05-01T02:56:10.005Z,8.08
2019-05-01T02:57:09.967Z,8.04
2019-05-01T02:58:09.992Z,8.11
2019-05-01T02:59:09.953Z,8.11
2019-05-01T03:00:09.971Z,8.12
2019-05-01T03:01:09.942Z,7.87
2019-05-01T03:02:09.962Z,7.63
2019-05-01T03:03:09.941Z,7.41
2019-05-01T03:04:09.916Z,7.35
2019-05-01T03:05:09.908Z,7.44
2019-05-01T03:06:09.910Z,7.27
2019-05-01T03:07:09.899Z,7.32
2019-05-01T03:08:09.885Z,7.24
2019-05-01T03:09:09.929Z,7.31
2019-05-01T03:10:10.145Z,7.52
2019-05-01T03:11:09.858Z,7.49
2019-05-01T03:12:09.883Z,7.56
2019-05-01T03:13:09.873Z,7.67
2019-05-01T03:14:09.931Z,7.62
2019-05-01T03:15:09.846Z,7.56
2019-05-01T03:16:09.848Z,7.60
2019-05-01T03:17:09.853Z,7.45
2019-05-01T03:18:09.819Z,7.49
2019-05-01T03:19:09.820Z,7.62
2019-05-01T03:20:09.809Z,7.71
2019-05-01T03:21:09.791Z,7.75
2019-05-01T03:22:09.783Z,7.69
2019-05-01T03:23:09.773Z,7.63
2019-05-01T03:24:09.761Z,7.77
2019-05-01T03:25:09.764Z,7.45
2019-05-01T03:26:09.763Z,7.35
2019-05-01T03:27:09.762Z,7.40
2019-05-01T03:28:09.790Z,7.31
2019-05-01T03:29:09.728Z,7.08
2019-05-01T03:30:09.720Z,7.16
2019-05-01T03:31:09.739Z,6.91
2019-05-01T03:32:19.602Z,6.94
2019-05-01T03:33:09.696Z,6.71
2019-05-01T03:34:09.724Z,6.90
2019-05-01T03:35:09.685Z,6.81
2019-05-01T03:36:09.683Z,6.99
2019-05-01T03:37:09.713Z,7.20
2019-05-01T03:38:09.699Z,7.24
2019-05-01T03:39:09.728Z,7.40
2019-05-01T03:40:12.251Z,7.45
2019-05-01T03:41:09.640Z,7.58
2019-05-01T03:42:09.673Z,7.47
2019-05-01T03:43:09.654Z,7.58
2019-05-01T03:44:09.656Z,7.52
2019-05-01T03:45:18.322Z,7.19
2019-05-01T03:47:14.182Z,7.08
2019-05-01T03:48:14.090Z,7.12
2019-05-01T03:49:14.101Z,7.12
2019-05-01T03:50:22.859Z,7.04
2019-05-01T03:52:18.628Z,6.90
2019-05-01T03:53:18.540Z,6.91
2019-05-01T03:54:18.550Z,6.87
2019-05-01T03:55:18.577Z,6.84
2019-05-01T03:56:18.508Z,6.94
2019-05-01T03:57:18.494Z,6.91
2019-05-01T03:58:18.514Z,6.95
2019-05-01T03:59:18.484Z,6.91
2019-05-01T04:00:18.470Z,6.71
2019-05-01T04:01:18.485Z,6.83
2019-05-01T04:02:32.239Z,6.65
2019-05-01T04:03:18.461Z,6.84
2019-05-01T04:04:18.557Z,6.72
2019-05-01T04:05:18.477Z,6.69
2019-05-01T04:06:18.469Z,6.66
2019-05-01T04:24:39.477Z,6.94
2019-05-01T04:25:38.975Z,7.04
2019-05-01T04:27:43.804Z,6.98
2019-05-01T04:28:43.440Z,7.08
2019-05-01T04:30:38.812Z,7.19
2019-05-01T04:31:38.711Z,7.19
2019-05-01T04:33:43.196Z,7.42
2019-05-01T04:34:43.160Z,7.41
2019-05-01T04:35:43.155Z,7.38
2019-05-01T04:36:43.246Z,7.40
2019-05-01T04:37:43.115Z,7.53
2019-05-01T04:38:43.101Z,7.60
2019-05-01T04:39:43.106Z,7.69
2019-05-01T04:40:43.085Z,7.55
2019-05-01T04:41:43.092Z,7.59
2019-05-01T04:42:43.066Z,7.59
2019-05-01T04:43:43.062Z,7.52
2019-05-01T04:44:43.056Z,7.47
2019-05-01T04:45:43.072Z,7.47
2019-05-01T04:46:43.090Z,7.47
2019-05-01T04:47:43.031Z,7.67
2019-05-01T04:48:43.085Z,7.58
2019-05-01T04:49:43.074Z,7.53
2019-05-01T04:50:43.031Z,7.69
2019-05-01T04:51:43.127Z,7.81
2019-05-01T04:52:43.215Z,7.99
2019-05-01T04:53:43.154Z,7.94
2019-05-01T04:54:43.033Z,8.11
2019-05-01T04:55:43.032Z,7.96
2019-05-01T04:56:42.970Z,8.00
2019-05-01T04:57:43.037Z,8.10
2019-05-01T04:58:42.991Z,8.17
2019-05-01T04:59:43.003Z,8.29
2019-05-01T05:00:42.968Z,8.29
2019-05-01T05:01:42.978Z,8.50
2019-05-01T05:02:42.976Z,8.50
2019-05-01T05:03:42.939Z,8.66
2019-05-01T05:04:42.932Z,9.15
2019-05-01T05:05:43.010Z,9.88
2019-05-01T05:06:42.944Z,10.80
2019-05-01T05:07:42.942Z,11.29
2019-05-01T05:08:42.928Z,11.46
2019-05-01T05:09:42.967Z,12.44
2019-05-01T05:10:42.949Z,12.54
2019-05-01T05:11:42.930Z,12.84
2019-05-01T05:12:42.941Z,13.14
2019-05-01T05:13:42.942Z,12.70
2019-05-01T05:14:43.010Z,13.37
2019-05-01T05:15:42.953Z,13.79
2019-05-01T05:16:42.916Z,14.37
2019-05-01T05:17:42.953Z,14.78
2019-05-01T05:18:42.966Z,14.91
2019-05-01T05:19:42.984Z,14.98
2019-05-01T05:20:42.942Z,15.02
2019-05-01T05:21:42.973Z,15.36
2019-05-01T05:22:42.913Z,15.46
2019-05-01T05:23:42.926Z,15.48
2019-05-01T05:24:42.964Z,15.33
2019-05-01T05:25:42.975Z,15.35
2019-05-01T05:26:42.934Z,14.68
2019-05-01T05:27:42.936Z,13.95
2019-05-01T05:28:42.946Z,13.70
2019-05-01T05:29:43.019Z,13.51
2019-05-01T05:30:43.127Z,13.70
2019-05-01T05:31:42.932Z,14.09
2019-05-01T05:32:42.995Z,14.43
2019-05-01T05:33:42.926Z,15.88
2019-05-01T05:34:42.943Z,16.95
2019-05-01T05:35:42.997Z,18.03
2019-05-01T05:36:42.975Z,18.21
2019-05-01T05:37:42.964Z,18.22
2019-05-01T05:38:42.982Z,18.68
2019-05-01T05:39:42.952Z,18.59
2019-05-01T05:40:42.959Z,18.64
2019-05-01T05:41:42.965Z,18.34
2019-05-01T05:42:42.971Z,18.61
2019-05-01T05:43:42.998Z,18.94
2019-05-01T05:44:42.976Z,18.99
2019-05-01T05:45:42.990Z,19.10
2019-05-01T05:46:43.008Z,19.53
2019-05-01T05:47:43.029Z,20.38
2019-05-01T05:48:42.988Z,20.34
2019-05-01T05:49:43.012Z,20.56
2019-05-01T05:50:42.989Z,20.65
2019-05-01T05:51:43.044Z,21.04
2019-05-01T05:52:43.004Z,21.20
2019-05-01T05:53:43.025Z,21.24
2019-05-01T05:54:43.039Z,21.50
2019-05-01T05:55:43.048Z,21.51
2019-05-01T05:56:43.020Z,21.72
2019-05-01T05:57:43.019Z,21.69
2019-05-01T05:58:43.030Z,21.39
2019-05-01T05:59:43.063Z,21.45
2019-05-01T06:00:43.027Z,21.83
2019-05-01T06:01:43.026Z,21.81
2019-05-01T06:02:43.061Z,22.07
2019-05-01T06:03:43.041Z,22.16
2019-05-01T06:04:43.074Z,21.92
2019-05-01T06:05:43.106Z,21.04
2019-05-01T06:06:43.115Z,19.94
2019-05-01T06:07:43.103Z,17.84
2019-05-01T06:08:43.101Z,16.96
2019-05-01T06:09:44.692Z,16.14
2019-05-01T06:10:43.131Z,15.52
2019-05-01T06:11:43.342Z,15.66
2019-05-01T06:12:46.880Z,16.68
2019-05-01T06:13:43.144Z,17.04
2019-05-01T06:14:43.125Z,16.80
2019-05-01T06:15:43.127Z,16.42
2019-05-01T06:16:46.760Z,16.26
2019-05-01T06:17:43.123Z,16.04
2019-05-01T06:18:43.143Z,15.36
2019-05-01T06:19:45.833Z,15.63
2019-05-01T06:20:43.133Z,15.67
2019-05-01T06:21:43.126Z,15.64
2019-05-01T06:22:45.142Z,15.35
2019-05-01T06:23:43.171Z,15.28
2019-05-01T06:24:43.131Z,15.09
2019-05-01T06:25:43.130Z,14.75
2019-05-01T06:26:43.135Z,14.81
2019-05-01T06:27:44.740Z,14.71
2019-05-01T06:28:43.144Z,14.71
2019-05-01T06:29:43.134Z,14.57
2019-05-01T06:30:47.088Z,14.52
2019-05-01T06:31:43.142Z,14.35
2019-05-01T06:32:43.171Z,14.31
2019-05-01T06:33:44.409Z,14.06
2019-05-01T06:34:43.178Z,14.02
2019-05-01T06:35:43.163Z,13.94
2019-05-01T06:36:44.335Z,13.88
2019-05-01T06:37:43.159Z,13.95
2019-05-01T06:38:51.897Z,13.84
2019-05-01T06:40:47.635Z,13.71
2019-05-01T06:41:47.637Z,13.56
2019-05-01T06:42:50.147Z,13.55
2019-05-01T06:43:47.656Z,13.56
2019-05-01T06:44:47.644Z,13.55
2019-05-01T06:45:56.438Z,13.51
2019-05-01T06:47:52.744Z,13.52
2019-05-01T06:48:53.509Z,13.44
2019-05-01T06:49:52.119Z,13.52
2019-05-01T06:50:52.134Z,13.54
2019-05-01T06:51:53.402Z,13.49
2019-05-01T06:52:52.090Z,13.51
2019-05-01T06:53:52.092Z,13.49
2019-05-01T06:54:52.240Z,13.55
2019-05-01T06:55:52.137Z,13.54
2019-05-01T06:56:52.088Z,13.37
2019-05-01T06:57:52.094Z,13.37
2019-05-01T06:58:55.207Z,13.32
2019-05-01T06:59:52.083Z,13.38
2019-05-01T07:00:52.097Z,13.36
2019-05-01T07:01:53.379Z,13.33
2019-05-01T07:02:52.196Z,13.36
2019-05-01T07:04:03.663Z,13.04
2019-05-01T07:04:52.630Z,13.09
2019-05-01T07:05:54.444Z,13.20
2019-05-01T07:06:52.053Z,13.37
2019-05-01T07:07:53.204Z,13.33
2019-05-01T07:08:52.249Z,13.43
2019-05-01T07:09:52.078Z,13.30
2019-05-01T07:10:52.078Z,13.30
2019-05-01T07:11:53.156Z,13.37
2019-05-01T07:12:52.098Z,13.36
2019-05-01T07:13:52.067Z,13.30
2019-05-01T07:14:52.209Z,13.27
2019-05-01T07:15:52.027Z,13.24
2019-05-01T07:16:52.094Z,13.18
2019-05-01T07:17:52.026Z,13.25
2019-05-01T07:18:52.443Z,13.37
2019-05-01T07:19:52.102Z,13.36
2019-05-01T07:20:53.262Z,13.33
2019-05-01T07:21:52.627Z,13.37
2019-05-01T07:22:52.046Z,13.29
2019-05-01T07:23:52.493Z,13.22
2019-05-01T07:24:52.072Z,13.24
2019-05-01T07:25:52.043Z,13.24
2019-05-01T07:26:52.048Z,13.38
2019-05-01T07:27:53.983Z,13.27
2019-05-01T07:28:52.014Z,13.29
2019-05-01T07:29:51.993Z,13.30
2019-05-01T07:30:54.920Z,13.32
2019-05-01T07:31:52.031Z,13.30
2019-05-01T07:32:51.999Z,13.47
2019-05-01T07:33:52.464Z,13.52
2019-05-01T07:34:51.991Z,13.47
2019-05-01T07:37:32.589Z,13.37
2019-05-01T07:38:33.069Z,13.33
2019-05-01T07:39:32.788Z,13.21
2019-05-01T07:40:32.711Z,13.20
2019-05-01T07:41:33.989Z,13.22
2019-05-01T07:42:32.605Z,13.18
2019-05-01T07:43:32.507Z,13.30
2019-05-01T07:44:33.789Z,13.36
2019-05-01T07:45:32.528Z,13.37
2019-05-01T07:46:32.638Z,13.49
2019-05-01T07:47:32.479Z,13.36
2019-05-01T07:48:36.072Z,13.44
2019-05-01T07:49:32.483Z,13.47
2019-05-01T07:50:32.789Z,13.49
2019-05-01T07:51:32.458Z,13.43
2019-05-01T07:52:32.468Z,13.36
2019-05-01T07:53:32.477Z,13.54
2019-05-01T07:54:32.444Z,13.43
2019-05-01T07:55:32.466Z,13.44
2019-05-01T07:56:32.450Z,13.59
2019-05-01T07:57:34.315Z,13.51
2019-05-01T07:58:32.456Z,13.44
2019-05-01T07:59:32.439Z,13.56
2019-05-01T08:00:32.421Z,13.47
2019-05-01T08:01:32.450Z,13.49
2019-05-01T08:02:33.035Z,13.43
2019-05-01T08:03:32.450Z,13.51
2019-05-01T08:04:36.516Z,13.52
2019-05-01T08:05:32.438Z,13.56
2019-05-01T08:06:32.408Z,13.59
2019-05-01T08:07:33.593Z,13.62
2019-05-01T08:08:32.409Z,13.59
2019-05-01T08:09:32.402Z,13.59
2019-05-01T08:10:33.878Z,13.62
2019-05-01T08:11:32.433Z,13.54
2019-05-01T08:12:32.410Z,13.63
2019-05-01T08:13:35.067Z,13.70
2019-05-01T08:14:32.381Z,13.61
2019-05-01T08:15:32.804Z,13.62
2019-05-01T08:16:32.372Z,13.96
2019-05-01T08:17:32.366Z,13.96
2019-05-01T08:18:32.427Z,13.87
2019-05-01T08:19:34.757Z,13.81
2019-05-01T08:20:32.385Z,13.88
2019-05-01T08:21:32.359Z,13.73
2019-05-01T08:22:37.340Z,13.83
2019-05-01T08:23:32.368Z,13.89
2019-05-01T08:24:32.345Z,13.99
2019-05-01T08:25:33.289Z,13.96
2019-05-01T08:26:32.339Z,13.99
2019-05-01T08:27:32.367Z,13.95
2019-05-01T08:28:33.331Z,13.92
2019-05-01T08:29:32.361Z,13.98
2019-05-01T08:30:32.353Z,14.14
2019-05-01T08:31:32.330Z,14.13
2019-05-01T08:32:42.217Z,14.01
2019-05-01T08:34:48.522Z,13.95
2019-05-01T08:35:37.651Z,14.14
2019-05-01T08:36:36.809Z,14.19
2019-05-01T08:37:36.811Z,14.21
2019-05-01T08:38:36.935Z,14.19
2019-05-01T08:39:39.599Z,14.34
2019-05-01T08:40:37.354Z,14.35
2019-05-01T08:41:37.783Z,14.34
2019-05-01T08:42:37.684Z,14.37
2019-05-01T08:43:36.767Z,14.35
2019-05-01T08:44:36.782Z,14.31
2019-05-01T08:45:40.786Z,14.21
2019-05-01T08:46:36.762Z,14.49
2019-05-01T08:47:36.781Z,14.61
2019-05-01T08:48:37.750Z,14.49
2019-05-01T08:49:36.751Z,14.60
2019-05-01T08:50:36.767Z,14.69
2019-05-01T08:51:36.759Z,14.61
2019-05-01T08:52:36.771Z,14.50
2019-05-01T08:53:36.747Z,14.46
2019-05-01T08:54:36.734Z,14.50
2019-05-01T08:55:39.816Z,14.57
2019-05-01T08:56:44.618Z,14.62
2019-05-01T08:57:45.831Z,14.57
2019-05-01T08:59:55.670Z,14.60
2019-05-01T09:00:50.276Z,14.56
2019-05-01T09:03:07.814Z,14.62
2019-05-01T09:03:57.000Z,14.72
2019-05-01T09:05:02.444Z,14.65
2019-05-01T09:05:57.706Z,14.62
2019-05-01T09:06:56.947Z,14.78
2019-05-01T09:07:57.781Z,14.64
2019-05-01T09:08:56.945Z,14.61
2019-05-01T09:09:56.941Z,14.60
2019-05-01T09:11:00.261Z,14.75
2019-05-01T09:11:56.925Z,14.74
2019-05-01T09:12:56.925Z,14.71
2019-05-01T09:13:58.937Z,14.75
2019-05-01T09:14:56.930Z,14.75
2019-05-01T09:15:56.953Z,14.91
2019-05-01T09:16:56.913Z,14.94
2019-05-01T09:17:56.936Z,15.01
2019-05-01T09:18:56.932Z,14.99
2019-05-01T09:19:56.942Z,15.08
2019-05-01T09:20:56.999Z,15.01
2019-05-01T09:21:56.926Z,15.11
2019-05-01T09:22:56.894Z,15.28
2019-05-01T09:23:56.896Z,15.21
2019-05-01T09:24:59.900Z,15.27
2019-05-01T09:25:56.894Z,15.17
2019-05-01T09:26:56.897Z,15.11
2019-05-01T09:28:06.297Z,15.02
2019-05-01T09:30:10.536Z,15.35
2019-05-01T09:31:10.238Z,15.28
2019-05-01T09:33:06.993Z,15.03
2019-05-01T09:34:19.150Z,15.36
2019-05-01T09:36:00.515Z,15.23
2019-05-01T09:37:09.062Z,15.33
2019-05-01T09:39:13.814Z,15.31
2019-05-01T09:40:09.224Z,15.31
2019-05-01T09:41:04.759Z,15.41
2019-05-01T09:42:06.634Z,15.45
2019-05-01T09:43:04.754Z,15.31
2019-05-01T09:44:05.762Z,15.56
2019-05-01T09:45:04.769Z,15.51
2019-05-01T09:46:04.747Z,15.41
2019-05-01T09:47:04.743Z,15.38
2019-05-01T09:48:04.744Z,15.17
2019-05-01T09:49:04.735Z,15.20
2019-05-01T09:50:04.739Z,15.31
2019-05-01T09:51:05.474Z,15.54
2019-05-01T09:52:04.720Z,15.60
2019-05-01T09:53:04.702Z,15.54
2019-05-01T09:54:05.698Z,15.51
2019-05-01T09:55:04.724Z,15.61
2019-05-01T09:56:07.641Z,15.64
2019-05-01T09:57:04.745Z,15.70
2019-05-01T09:58:04.727Z,15.82
2019-05-01T09:59:04.733Z,15.70
2019-05-01T10:00:04.746Z,15.92
2019-05-01T10:01:04.699Z,15.97
2019-05-01T10:02:07.814Z,15.85
2019-05-01T10:03:04.695Z,15.79
2019-05-01T10:04:05.691Z,15.96
2019-05-01T10:05:06.746Z,16.12
2019-05-01T10:06:04.680Z,16.22
2019-05-01T10:07:04.729Z,16.20
2019-05-01T10:08:05.456Z,16.23
2019-05-01T10:09:04.693Z,16.18
2019-05-01T10:10:04.717Z,16.33
2019-05-01T10:11:05.105Z,16.30
2019-05-01T10:12:04.727Z,16.23
2019-05-01T10:13:04.761Z,16.26
2019-05-01T10:14:04.670Z,16.26
2019-05-01T10:15:04.700Z,16.20
2019-05-01T10:16:04.695Z,16.18
2019-05-01T10:17:04.681Z,16.20
2019-05-01T10:18:04.696Z,16.30
2019-05-01T10:19:04.668Z,16.27
2019-05-01T10:20:04.682Z,16.50
2019-05-01T10:21:04.732Z,16.58
2019-05-01T10:22:04.687Z,16.42
2019-05-01T10:23:07.873Z,16.62
2019-05-01T10:24:04.672Z,16.52
2019-05-01T10:25:08.561Z,16.52
2019-05-01T10:26:04.646Z,16.34
2019-05-01T10:27:04.714Z,16.25
2019-05-01T10:28:07.329Z,16.35
2019-05-01T10:29:04.659Z,16.58
2019-05-01T10:30:04.649Z,16.74
2019-05-01T10:31:13.679Z,16.73
2019-05-01T10:33:17.992Z,16.59
2019-05-01T10:34:09.205Z,16.53
2019-05-01T10:35:09.153Z,16.52
2019-05-01T10:36:17.752Z,16.56
2019-05-01T10:37:09.138Z,16.58
2019-05-01T10:38:10.635Z,16.49
2019-05-01T10:39:09.129Z,16.55
2019-05-01T10:40:09.108Z,16.81
2019-05-01T10:41:10.522Z,16.88
2019-05-01T10:42:09.176Z,16.74
2019-05-01T10:43:09.176Z,16.92
2019-05-01T10:44:09.178Z,16.81
2019-05-01T10:45:09.201Z,16.73
2019-05-01T10:46:09.180Z,16.53
2019-05-01T10:47:09.150Z,16.95
2019-05-01T10:48:09.114Z,17.18
2019-05-01T10:49:09.121Z,16.93
2019-05-01T10:50:09.115Z,16.96
2019-05-01T10:51:09.125Z,16.92
2019-05-01T10:52:14.241Z,16.86
2019-05-01T10:53:09.151Z,16.92
2019-05-01T10:54:09.157Z,16.92
2019-05-01T10:55:09.094Z,17.32
2019-05-01T10:56:09.106Z,17.29
2019-05-01T10:57:09.099Z,17.13
2019-05-01T10:58:12.863Z,17.07
2019-05-01T10:59:09.129Z,16.98
2019-05-01T11:00:09.128Z,16.73
2019-05-01T11:01:09.118Z,16.75
2019-05-01T11:02:09.098Z,16.89
2019-05-01T11:03:09.107Z,17.07
2019-05-01T11:04:09.174Z,16.99
2019-05-01T11:05:09.117Z,16.96
2019-05-01T11:06:09.118Z,17.10
2019-05-01T11:07:09.123Z,17.00
2019-05-01T11:08:09.128Z,17.03
2019-05-01T11:09:09.110Z,17.38
2019-05-01T11:10:09.100Z,17.32
2019-05-01T11:11:09.081Z,17.30
2019-05-01T11:12:09.096Z,17.29
2019-05-01T11:13:09.106Z,17.28
2019-05-01T11:14:09.105Z,17.04
2019-05-01T11:15:09.124Z,17.29
2019-05-01T11:16:09.133Z,17.20
2019-05-01T11:17:09.105Z,17.40
2019-05-01T11:18:09.116Z,17.46
2019-05-01T11:19:09.084Z,17.41
2019-05-01T11:20:09.095Z,17.28
2019-05-01T11:21:09.082Z,17.15
2019-05-01T11:22:09.109Z,17.14
2019-05-01T11:23:09.180Z,17.23
2019-05-01T11:24:09.087Z,17.38
2019-05-01T11:25:09.122Z,17.33
2019-05-01T11:26:09.104Z,17.46
2019-05-01T11:27:09.072Z,17.41
2019-05-01T11:28:09.127Z,17.32
2019-05-01T11:29:09.082Z,17.26
2019-05-01T11:30:09.087Z,17.38
2019-05-01T11:31:09.155Z,17.33
2019-05-01T11:32:09.102Z,17.33
2019-05-01T11:33:09.084Z,17.32
2019-05-01T11:34:09.067Z,17.17
2019-05-01T11:35:18.539Z,17.00
2019-05-01T11:37:18.436Z,17.00
2019-05-01T11:41:37.064Z,17.48
2019-05-01T11:42:37.135Z,17.44
2019-05-01T11:43:36.764Z,17.47
2019-05-01T11:44:36.642Z,17.59
2019-05-01T11:45:36.803Z,17.41
2019-05-01T11:46:36.733Z,17.41
2019-05-01T11:47:36.773Z,17.74
2019-05-01T11:48:36.613Z,17.67
2019-05-01T11:49:36.681Z,17.76
2019-05-01T11:50:36.657Z,17.66
2019-05-01T11:51:37.185Z,17.74
2019-05-01T11:52:36.630Z,17.62
2019-05-01T11:53:36.653Z,17.70
2019-05-01T11:54:36.632Z,17.81
2019-05-01T11:55:36.667Z,17.67
2019-05-01T11:56:36.613Z,17.74
2019-05-01T11:57:36.730Z,17.71
2019-05-01T11:58:36.726Z,17.59
2019-05-01T11:59:36.710Z,17.73
2019-05-01T12:00:36.656Z,17.78
2019-05-01T12:01:36.638Z,17.74
2019-05-01T12:02:36.618Z,17.66
2019-05-01T12:03:36.619Z,17.70
2019-05-01T12:04:36.624Z,17.92
2019-05-01T12:05:36.673Z,17.91
2019-05-01T12:06:36.646Z,17.73
2019-05-01T12:07:36.637Z,17.70
2019-05-01T12:08:36.611Z,17.70
2019-05-01T12:09:36.625Z,17.84
2019-05-01T12:10:36.666Z,17.94
2019-05-01T12:11:36.609Z,17.79
2019-05-01T12:12:36.681Z,17.89
2019-05-01T12:13:43.495Z,17.97
2019-05-01T12:14:36.905Z,17.81
2019-05-01T12:15:36.629Z,17.84
2019-05-01T12:16:36.615Z,17.99
2019-05-01T12:17:38.920Z,17.79
2019-05-01T12:18:36.629Z,17.78
2019-05-01T12:19:36.679Z,17.87
2019-05-01T12:20:36.675Z,17.84
2019-05-01T12:21:36.639Z,17.73
2019-05-01T12:22:36.636Z,17.92
2019-05-01T12:23:36.603Z,18.13
2019-05-01T12:24:45.340Z,17.91
2019-05-01T12:26:38.464Z,18.06
2019-05-01T12:27:38.839Z,18.03
2019-05-01T12:29:36.589Z,17.85
2019-05-01T12:30:34.594Z,18.06
2019-05-01T12:32:49.135Z,18.22
2019-05-01T12:33:39.220Z,18.02
2019-05-01T12:34:39.246Z,18.04
2019-05-01T12:35:39.250Z,18.28
2019-05-01T12:36:39.477Z,18.27
2019-05-01T12:37:39.278Z,18.36
2019-05-01T12:38:39.239Z,18.31
2019-05-01T12:39:47.980Z,18.31
2019-05-01T12:41:43.747Z,18.18
2019-05-01T12:42:43.938Z,18.13
2019-05-01T12:43:43.789Z,17.99
2019-05-01T12:44:43.805Z,17.87
2019-05-01T12:45:43.904Z,17.79
2019-05-01T12:46:43.923Z,18.02
2019-05-01T12:47:43.788Z,18.00
2019-05-01T12:48:43.777Z,18.07
2019-05-01T12:49:43.781Z,18.40
2019-05-01T12:50:43.981Z,18.13
2019-05-01T12:51:43.694Z,18.09
2019-05-01T12:52:46.185Z,18.40
2019-05-01T12:53:43.789Z,18.31
2019-05-01T12:54:43.692Z,18.55
2019-05-01T12:55:43.724Z,18.61
2019-05-01T12:56:43.699Z,18.62
2019-05-01T12:57:43.704Z,18.40
2019-05-01T12:58:43.691Z,18.58
2019-05-01T12:59:43.690Z,18.59
2019-05-01T13:00:43.690Z,18.39
2019-05-01T13:01:43.707Z,18.50
2019-05-01T13:02:43.689Z,18.34
2019-05-01T13:03:43.695Z,18.34
2019-05-01T13:04:43.726Z,18.28
2019-05-01T13:05:43.699Z,18.34
2019-05-01T13:06:49.523Z,18.47
2019-05-01T13:07:43.693Z,18.29
2019-05-01T13:08:43.696Z,18.22
2019-05-01T13:09:43.695Z,18.10
2019-05-01T13:10:43.696Z,18.17
2019-05-01T13:11:43.694Z,18.27
2019-05-01T13:12:43.704Z,18.50
2019-05-01T13:13:43.701Z,18.50
2019-05-01T13:14:43.684Z,18.54
2019-05-01T13:15:43.698Z,18.58
2019-05-01T13:16:43.691Z,18.43
2019-05-01T13:17:43.691Z,18.47
2019-05-01T13:18:43.690Z,18.58
2019-05-01T13:19:43.694Z,18.57
2019-05-01T13:22:48.193Z,18.15
2019-05-01T13:23:48.183Z,18.02
2019-05-01T13:24:48.193Z,18.09
2019-05-01T13:25:48.177Z,18.03
2019-05-01T13:26:48.184Z,18.07
2019-05-01T13:27:48.178Z,18.06
2019-05-01T13:28:48.176Z,18.06
2019-05-01T13:29:48.182Z,18.10
2019-05-01T13:30:48.194Z,18.25
2019-05-01T13:31:48.195Z,18.21
2019-05-01T13:32:48.204Z,18.17
2019-05-01T13:33:48.178Z,18.25
2019-05-01T13:34:48.186Z,18.22
2019-05-01T13:35:48.180Z,18.52
2019-05-01T13:36:48.174Z,18.58
2019-05-01T13:37:48.223Z,18.67
2019-05-01T13:38:48.178Z,18.73
2019-05-01T13:39:48.180Z,18.73
2019-05-01T13:40:48.193Z,18.74
2019-05-01T13:41:48.181Z,18.61
2019-05-01T13:42:48.183Z,18.58
2019-05-01T13:43:48.180Z,18.50
2019-05-01T13:44:48.210Z,18.29
2019-05-01T13:45:48.173Z,18.34
2019-05-01T13:46:48.192Z,18.39
2019-05-01T13:47:48.185Z,18.40